sensor_id;sensor_type;location;lat;lon;timestamp;P1;durP1;ratioP1;P2;durP2;ratioP2
19167;SDS011;9716;53.114;18.040;2023-04-28T00:01:13;13.80;;;3.17;;
19167;SDS011;9716;53.114;18.040;2023-04-28T00:03:42;10.27;;;3.47;;
19167;SDS011;9716;53.114;18.040;2023-04-28T00:06:10;10.52;;;3.40;;
19167;SDS011;9716;53.114;18.040;2023-04-28T00:08:39;11.10;;;3.60;;
19167;SDS011;9716;53.114;18.040;2023-04-28T00:11:08;8.48;;;3.78;;
19167;SDS011;9716;53.114;18.040;2023-04-28T00:13:37;7.47;;;3.47;;
19167;SDS011;9716;53.114;18.040;2023-04-28T00:16:07;9.25;;;3.72;;
19167;SDS011;9716;53.114;18.040;2023-04-28T00:18:35;12.57;;;3.58;;
19167;SDS011;9716;53.114;18.040;2023-04-28T00:21:04;11.98;;;4.20;;
19167;SDS011;9716;53.114;18.040;2023-04-28T00:23:33;8.05;;;3.30;;
19167;SDS011;9716;53.114;18.040;2023-04-28T00:26:01;8.32;;;3.97;;
19167;SDS011;9716;53.114;18.040;2023-04-28T00:28:30;6.05;;;3.42;;
19167;SDS011;9716;53.114;18.040;2023-04-28T00:31:00;7.05;;;3.30;;
19167;SDS011;9716;53.114;18.040;2023-04-28T00:33:30;12.43;;;3.10;;
19167;SDS011;9716;53.114;18.040;2023-04-28T00:35:59;8.73;;;3.72;;
19167;SDS011;9716;53.114;18.040;2023-04-28T00:38:27;10.13;;;3.73;;
19167;SDS011;9716;53.114;18.040;2023-04-28T00:40:56;9.25;;;4.15;;
19167;SDS011;9716;53.114;18.040;2023-04-28T00:43:25;8.60;;;4.40;;
19167;SDS011;9716;53.114;18.040;2023-04-28T00:45:53;10.93;;;4.22;;
19167;SDS011;9716;53.114;18.040;2023-04-28T00:48:22;10.88;;;3.70;;
19167;SDS011;9716;53.114;18.040;2023-04-28T00:50:52;5.32;;;3.40;;
19167;SDS011;9716;53.114;18.040;2023-04-28T00:53:20;11.07;;;3.97;;
19167;SDS011;9716;53.114;18.040;2023-04-28T00:55:49;10.65;;;4.47;;
19167;SDS011;9716;53.114;18.040;2023-04-28T00:58:19;7.78;;;3.65;;
19167;SDS011;9716;53.114;18.040;2023-04-28T01:00:48;13.02;;;4.53;;
19167;SDS011;9716;53.114;18.040;2023-04-28T01:03:16;10.13;;;4.30;;
19167;SDS011;9716;53.114;18.040;2023-04-28T01:05:45;8.88;;;4.25;;
19167;SDS011;9716;53.114;18.040;2023-04-28T01:08:15;7.47;;;4.13;;
19167;SDS011;9716;53.114;18.040;2023-04-28T01:10:43;15.68;;;5.57;;
19167;SDS011;9716;53.114;18.040;2023-04-28T01:13:12;9.88;;;3.78;;
19167;SDS011;9716;53.114;18.040;2023-04-28T01:15:40;12.18;;;5.15;;
19167;SDS011;9716;53.114;18.040;2023-04-28T01:18:09;13.23;;;5.65;;
19167;SDS011;9716;53.114;18.040;2023-04-28T01:20:37;15.32;;;4.90;;
19167;SDS011;9716;53.114;18.040;2023-04-28T01:23:10;16.30;;;5.63;;
19167;SDS011;9716;53.114;18.040;2023-04-28T01:25:40;11.25;;;5.25;;
19167;SDS011;9716;53.114;18.040;2023-04-28T01:28:10;13.13;;;5.00;;
19167;SDS011;9716;53.114;18.040;2023-04-28T01:30:38;16.10;;;6.03;;
19167;SDS011;9716;53.114;18.040;2023-04-28T01:33:07;11.95;;;4.63;;
19167;SDS011;9716;53.114;18.040;2023-04-28T01:35:35;15.55;;;5.93;;
19167;SDS011;9716;53.114;18.040;2023-04-28T01:38:04;15.40;;;6.15;;
19167;SDS011;9716;53.114;18.040;2023-04-28T01:40:32;14.82;;;5.30;;
19167;SDS011;9716;53.114;18.040;2023-04-28T01:43:02;12.68;;;5.97;;
19167;SDS011;9716;53.114;18.040;2023-04-28T01:45:30;14.77;;;5.68;;
19167;SDS011;9716;53.114;18.040;2023-04-28T01:47:59;14.93;;;6.20;;
19167;SDS011;9716;53.114;18.040;2023-04-28T01:50:27;13.38;;;5.50;;
19167;SDS011;9716;53.114;18.040;2023-04-28T01:52:56;12.85;;;5.65;;
19167;SDS011;9716;53.114;18.040;2023-04-28T01:55:25;12.65;;;5.75;;
19167;SDS011;9716;53.114;18.040;2023-04-28T01:57:54;13.88;;;5.95;;
19167;SDS011;9716;53.114;18.040;2023-04-28T02:00:25;17.45;;;6.85;;
19167;SDS011;9716;53.114;18.040;2023-04-28T02:02:53;17.58;;;5.05;;
19167;SDS011;9716;53.114;18.040;2023-04-28T02:05:22;12.95;;;5.75;;
19167;SDS011;9716;53.114;18.040;2023-04-28T02:07:50;22.48;;;5.90;;
19167;SDS011;9716;53.114;18.040;2023-04-28T02:10:19;14.77;;;5.25;;
19167;SDS011;9716;53.114;18.040;2023-04-28T02:12:47;12.63;;;5.45;;
19167;SDS011;9716;53.114;18.040;2023-04-28T02:15:16;19.50;;;6.93;;
19167;SDS011;9716;53.114;18.040;2023-04-28T02:17:46;15.52;;;5.80;;
19167;SDS011;9716;53.114;18.040;2023-04-28T02:20:15;14.77;;;6.32;;
19167;SDS011;9716;53.114;18.040;2023-04-28T02:22:43;22.33;;;6.13;;
19167;SDS011;9716;53.114;18.040;2023-04-28T02:25:12;22.05;;;6.97;;
19167;SDS011;9716;53.114;18.040;2023-04-28T02:27:40;13.13;;;5.57;;
19167;SDS011;9716;53.114;18.040;2023-04-28T02:30:09;16.70;;;5.90;;
19167;SDS011;9716;53.114;18.040;2023-04-28T02:32:38;14.15;;;5.72;;
19167;SDS011;9716;53.114;18.040;2023-04-28T02:35:08;10.45;;;6.05;;
19167;SDS011;9716;53.114;18.040;2023-04-28T02:37:36;19.00;;;5.20;;
19167;SDS011;9716;53.114;18.040;2023-04-28T02:40:05;15.63;;;5.82;;
19167;SDS011;9716;53.114;18.040;2023-04-28T02:42:35;21.65;;;6.43;;
19167;SDS011;9716;53.114;18.040;2023-04-28T02:45:03;12.25;;;5.68;;
19167;SDS011;9716;53.114;18.040;2023-04-28T02:47:34;10.20;;;4.63;;
19167;SDS011;9716;53.114;18.040;2023-04-28T02:50:02;11.35;;;5.53;;
19167;SDS011;9716;53.114;18.040;2023-04-28T02:52:33;11.68;;;5.57;;
19167;SDS011;9716;53.114;18.040;2023-04-28T02:55:01;9.40;;;5.53;;
19167;SDS011;9716;53.114;18.040;2023-04-28T02:57:30;12.57;;;5.30;;
19167;SDS011;9716;53.114;18.040;2023-04-28T02:59:59;11.80;;;4.88;;
19167;SDS011;9716;53.114;18.040;2023-04-28T03:02:27;8.52;;;4.25;;
19167;SDS011;9716;53.114;18.040;2023-04-28T03:04:56;12.63;;;5.72;;
19167;SDS011;9716;53.114;18.040;2023-04-28T03:07:25;10.68;;;5.25;;
19167;SDS011;9716;53.114;18.040;2023-04-28T03:09:55;13.15;;;5.22;;
19167;SDS011;9716;53.114;18.040;2023-04-28T03:12:24;13.05;;;5.97;;
19167;SDS011;9716;53.114;18.040;2023-04-28T03:14:52;15.70;;;5.75;;
19167;SDS011;9716;53.114;18.040;2023-04-28T03:17:21;13.40;;;6.15;;
19167;SDS011;9716;53.114;18.040;2023-04-28T03:19:49;11.48;;;5.43;;
19167;SDS011;9716;53.114;18.040;2023-04-28T03:22:18;11.80;;;5.45;;
19167;SDS011;9716;53.114;18.040;2023-04-28T03:24:46;17.50;;;5.13;;
19167;SDS011;9716;53.114;18.040;2023-04-28T03:27:16;22.85;;;6.28;;
19167;SDS011;9716;53.114;18.040;2023-04-28T03:29:45;13.57;;;5.97;;
19167;SDS011;9716;53.114;18.040;2023-04-28T03:32:13;17.25;;;5.63;;
19167;SDS011;9716;53.114;18.040;2023-04-28T03:34:42;14.63;;;6.05;;
19167;SDS011;9716;53.114;18.040;2023-04-28T03:37:10;14.15;;;6.40;;
19167;SDS011;9716;53.114;18.040;2023-04-28T03:39:39;12.57;;;5.75;;
19167;SDS011;9716;53.114;18.040;2023-04-28T03:42:07;15.45;;;6.20;;
19167;SDS011;9716;53.114;18.040;2023-04-28T03:44:37;17.92;;;5.90;;
19167;SDS011;9716;53.114;18.040;2023-04-28T03:47:06;16.60;;;7.25;;
19167;SDS011;9716;53.114;18.040;2023-04-28T03:49:34;13.70;;;6.45;;
19167;SDS011;9716;53.114;18.040;2023-04-28T03:52:03;11.02;;;6.15;;
19167;SDS011;9716;53.114;18.040;2023-04-28T03:54:31;15.75;;;7.13;;
19167;SDS011;9716;53.114;18.040;2023-04-28T03:56:59;12.18;;;6.43;;
19167;SDS011;9716;53.114;18.040;2023-04-28T03:59:30;22.83;;;7.55;;
19167;SDS011;9716;53.114;18.040;2023-04-28T04:02:00;21.73;;;8.15;;
19167;SDS011;9716;53.114;18.040;2023-04-28T04:04:28;17.65;;;8.20;;
19167;SDS011;9716;53.114;18.040;2023-04-28T04:06:57;21.55;;;8.13;;
19167;SDS011;9716;53.114;18.040;2023-04-28T04:09:26;23.27;;;9.02;;
19167;SDS011;9716;53.114;18.040;2023-04-28T04:11:54;26.80;;;8.85;;
19167;SDS011;9716;53.114;18.040;2023-04-28T04:14:24;24.00;;;9.73;;
19167;SDS011;9716;53.114;18.040;2023-04-28T04:16:52;31.42;;;10.35;;
19167;SDS011;9716;53.114;18.040;2023-04-28T04:19:22;20.00;;;9.20;;
19167;SDS011;9716;53.114;18.040;2023-04-28T04:21:52;17.58;;;8.43;;
19167;SDS011;9716;53.114;18.040;2023-04-28T04:24:20;29.40;;;10.90;;
19167;SDS011;9716;53.114;18.040;2023-04-28T04:26:49;26.63;;;9.10;;
19167;SDS011;9716;53.114;18.040;2023-04-28T04:29:17;16.08;;;8.85;;
19167;SDS011;9716;53.114;18.040;2023-04-28T04:31:46;18.30;;;8.43;;
19167;SDS011;9716;53.114;18.040;2023-04-28T04:34:15;20.17;;;8.77;;
19167;SDS011;9716;53.114;18.040;2023-04-28T04:36:45;27.85;;;7.90;;
19167;SDS011;9716;53.114;18.040;2023-04-28T04:39:13;30.77;;;8.75;;
19167;SDS011;9716;53.114;18.040;2023-04-28T04:41:42;28.80;;;9.50;;
19167;SDS011;9716;53.114;18.040;2023-04-28T04:44:11;27.73;;;9.07;;
19167;SDS011;9716;53.114;18.040;2023-04-28T04:46:40;26.88;;;9.48;;
19167;SDS011;9716;53.114;18.040;2023-04-28T04:49:08;18.58;;;8.75;;
19167;SDS011;9716;53.114;18.040;2023-04-28T04:51:37;21.65;;;8.93;;
19167;SDS011;9716;53.114;18.040;2023-04-28T04:54:06;27.20;;;7.93;;
19167;SDS011;9716;53.114;18.040;2023-04-28T04:56:35;31.27;;;11.15;;
19167;SDS011;9716;53.114;18.040;2023-04-28T04:59:04;35.72;;;9.35;;
19167;SDS011;9716;53.114;18.040;2023-04-28T05:01:32;22.08;;;9.40;;
19167;SDS011;9716;53.114;18.040;2023-04-28T05:04:01;22.42;;;9.50;;
19167;SDS011;9716;53.114;18.040;2023-04-28T05:06:30;23.15;;;9.07;;
19167;SDS011;9716;53.114;18.040;2023-04-28T05:08:59;22.73;;;10.88;;
19167;SDS011;9716;53.114;18.040;2023-04-28T05:11:29;25.50;;;10.55;;
19167;SDS011;9716;53.114;18.040;2023-04-28T05:13:57;31.00;;;11.13;;
19167;SDS011;9716;53.114;18.040;2023-04-28T05:16:26;21.33;;;10.30;;
19167;SDS011;9716;53.114;18.040;2023-04-28T05:18:55;29.58;;;9.98;;
19167;SDS011;9716;53.114;18.040;2023-04-28T05:21:23;21.10;;;10.32;;
19167;SDS011;9716;53.114;18.040;2023-04-28T05:23:52;22.92;;;9.80;;
19167;SDS011;9716;53.114;18.040;2023-04-28T05:26:21;28.20;;;10.48;;
19167;SDS011;9716;53.114;18.040;2023-04-28T05:28:51;24.95;;;9.57;;
19167;SDS011;9716;53.114;18.040;2023-04-28T05:31:20;23.05;;;9.70;;
19167;SDS011;9716;53.114;18.040;2023-04-28T05:33:48;26.60;;;10.65;;
19167;SDS011;9716;53.114;18.040;2023-04-28T05:36:18;27.83;;;10.35;;
19167;SDS011;9716;53.114;18.040;2023-04-28T05:38:46;27.33;;;9.68;;
19167;SDS011;9716;53.114;18.040;2023-04-28T05:41:15;26.83;;;9.25;;
19167;SDS011;9716;53.114;18.040;2023-04-28T05:43:43;24.00;;;9.77;;
19167;SDS011;9716;53.114;18.040;2023-04-28T05:46:13;18.88;;;9.27;;
19167;SDS011;9716;53.114;18.040;2023-04-28T05:48:56;26.20;;;10.00;;
19167;SDS011;9716;53.114;18.040;2023-04-28T05:51:25;23.40;;;9.07;;
19167;SDS011;9716;53.114;18.040;2023-04-28T05:53:53;23.35;;;7.97;;
19167;SDS011;9716;53.114;18.040;2023-04-28T05:56:22;22.25;;;9.52;;
19167;SDS011;9716;53.114;18.040;2023-04-28T05:58:50;26.48;;;8.48;;
19167;SDS011;9716;53.114;18.040;2023-04-28T06:01:20;18.95;;;7.93;;
19167;SDS011;9716;53.114;18.040;2023-04-28T06:03:49;18.73;;;7.88;;
19167;SDS011;9716;53.114;18.040;2023-04-28T06:06:19;18.67;;;8.07;;
19167;SDS011;9716;53.114;18.040;2023-04-28T06:08:48;16.63;;;7.28;;
19167;SDS011;9716;53.114;18.040;2023-04-28T06:11:17;23.23;;;6.45;;
19167;SDS011;9716;53.114;18.040;2023-04-28T06:13:48;19.70;;;7.38;;
19167;SDS011;9716;53.114;18.040;2023-04-28T06:16:18;18.75;;;6.03;;
19167;SDS011;9716;53.114;18.040;2023-04-28T06:18:48;16.67;;;7.43;;
19167;SDS011;9716;53.114;18.040;2023-04-28T06:21:16;10.88;;;5.72;;
19167;SDS011;9716;53.114;18.040;2023-04-28T06:23:46;17.45;;;6.38;;
19167;SDS011;9716;53.114;18.040;2023-04-28T06:26:17;16.17;;;6.03;;
19167;SDS011;9716;53.114;18.040;2023-04-28T06:28:45;17.63;;;6.03;;
19167;SDS011;9716;53.114;18.040;2023-04-28T06:31:14;23.13;;;6.43;;
19167;SDS011;9716;53.114;18.040;2023-04-28T06:33:42;15.02;;;6.10;;
19167;SDS011;9716;53.114;18.040;2023-04-28T06:36:12;24.67;;;6.43;;
19167;SDS011;9716;53.114;18.040;2023-04-28T06:38:43;15.57;;;6.45;;
19167;SDS011;9716;53.114;18.040;2023-04-28T06:41:12;30.15;;;6.93;;
19167;SDS011;9716;53.114;18.040;2023-04-28T06:43:40;14.23;;;5.47;;
19167;SDS011;9716;53.114;18.040;2023-04-28T06:46:10;24.10;;;6.10;;
19167;SDS011;9716;53.114;18.040;2023-04-28T06:48:38;17.10;;;5.97;;
19167;SDS011;9716;53.114;18.040;2023-04-28T06:51:07;8.52;;;5.10;;
19167;SDS011;9716;53.114;18.040;2023-04-28T06:53:37;12.80;;;5.10;;
19167;SDS011;9716;53.114;18.040;2023-04-28T06:56:06;15.80;;;5.38;;
19167;SDS011;9716;53.114;18.040;2023-04-28T06:58:37;19.98;;;5.00;;
19167;SDS011;9716;53.114;18.040;2023-04-28T07:01:05;9.18;;;4.78;;
19167;SDS011;9716;53.114;18.040;2023-04-28T07:03:34;12.10;;;4.05;;
19167;SDS011;9716;53.114;18.040;2023-04-28T07:06:03;9.63;;;4.20;;
19167;SDS011;9716;53.114;18.040;2023-04-28T07:08:32;10.15;;;3.78;;
19167;SDS011;9716;53.114;18.040;2023-04-28T07:11:02;12.57;;;4.07;;
19167;SDS011;9716;53.114;18.040;2023-04-28T07:13:31;5.47;;;3.78;;
19167;SDS011;9716;53.114;18.040;2023-04-28T07:16:00;8.38;;;3.38;;
19167;SDS011;9716;53.114;18.040;2023-04-28T07:18:29;10.02;;;3.42;;
19167;SDS011;9716;53.114;18.040;2023-04-28T07:20:58;10.85;;;3.40;;
19167;SDS011;9716;53.114;18.040;2023-04-28T07:23:28;5.28;;;2.55;;
19167;SDS011;9716;53.114;18.040;2023-04-28T07:25:57;18.00;;;3.47;;
19167;SDS011;9716;53.114;18.040;2023-04-28T07:28:27;5.38;;;2.70;;
19167;SDS011;9716;53.114;18.040;2023-04-28T07:30:56;8.50;;;3.10;;
19167;SDS011;9716;53.114;18.040;2023-04-28T07:33:24;5.53;;;2.33;;
19167;SDS011;9716;53.114;18.040;2023-04-28T07:35:53;4.93;;;2.58;;
19167;SDS011;9716;53.114;18.040;2023-04-28T07:38:22;6.00;;;2.67;;
19167;SDS011;9716;53.114;18.040;2023-04-28T07:40:51;8.57;;;3.10;;
19167;SDS011;9716;53.114;18.040;2023-04-28T07:43:19;3.78;;;1.80;;
19167;SDS011;9716;53.114;18.040;2023-04-28T07:45:49;4.88;;;2.22;;
19167;SDS011;9716;53.114;18.040;2023-04-28T07:48:18;4.30;;;1.95;;
19167;SDS011;9716;53.114;18.040;2023-04-28T07:50:47;3.72;;;2.28;;
19167;SDS011;9716;53.114;18.040;2023-04-28T07:53:17;8.52;;;2.65;;
19167;SDS011;9716;53.114;18.040;2023-04-28T07:55:45;3.47;;;2.08;;
19167;SDS011;9716;53.114;18.040;2023-04-28T07:58:14;5.85;;;1.83;;
19167;SDS011;9716;53.114;18.040;2023-04-28T08:00:42;7.15;;;2.13;;
19167;SDS011;9716;53.114;18.040;2023-04-28T08:03:13;3.88;;;1.95;;
19167;SDS011;9716;53.114;18.040;2023-04-28T08:05:42;3.00;;;1.35;;
19167;SDS011;9716;53.114;18.040;2023-04-28T08:08:11;1.75;;;1.48;;
19167;SDS011;9716;53.114;18.040;2023-04-28T08:10:39;4.88;;;2.17;;
19167;SDS011;9716;53.114;18.040;2023-04-28T08:13:09;2.40;;;1.40;;
19167;SDS011;9716;53.114;18.040;2023-04-28T08:15:38;2.45;;;1.35;;
19167;SDS011;9716;53.114;18.040;2023-04-28T08:18:06;4.45;;;1.40;;
19167;SDS011;9716;53.114;18.040;2023-04-28T08:20:36;7.32;;;1.40;;
19167;SDS011;9716;53.114;18.040;2023-04-28T08:23:05;1.42;;;1.05;;
19167;SDS011;9716;53.114;18.040;2023-04-28T08:25:33;1.10;;;0.82;;
19167;SDS011;9716;53.114;18.040;2023-04-28T08:28:02;3.05;;;1.65;;
19167;SDS011;9716;53.114;18.040;2023-04-28T08:30:32;1.38;;;1.25;;
19167;SDS011;9716;53.114;18.040;2023-04-28T08:33:00;2.15;;;0.93;;
19167;SDS011;9716;53.114;18.040;2023-04-28T08:35:28;6.15;;;1.40;;
19167;SDS011;9716;53.114;18.040;2023-04-28T08:37:58;3.10;;;1.13;;
19167;SDS011;9716;53.114;18.040;2023-04-28T08:40:27;2.90;;;1.23;;
19167;SDS011;9716;53.114;18.040;2023-04-28T08:42:57;2.28;;;1.23;;
19167;SDS011;9716;53.114;18.040;2023-04-28T08:45:26;3.03;;;1.42;;
19167;SDS011;9716;53.114;18.040;2023-04-28T08:47:57;2.42;;;1.52;;
19167;SDS011;9716;53.114;18.040;2023-04-28T08:50:27;5.13;;;0.93;;
19167;SDS011;9716;53.114;18.040;2023-04-28T08:52:59;2.45;;;1.23;;
19167;SDS011;9716;53.114;18.040;2023-04-28T08:55:32;2.67;;;1.25;;
19167;SDS011;9716;53.114;18.040;2023-04-28T08:58:02;1.42;;;1.10;;
19167;SDS011;9716;53.114;18.040;2023-04-28T09:00:31;2.50;;;1.42;;
19167;SDS011;9716;53.114;18.040;2023-04-28T09:03:02;12.85;;;1.20;;
19167;SDS011;9716;53.114;18.040;2023-04-28T09:05:35;1.75;;;0.88;;
19167;SDS011;9716;53.114;18.040;2023-04-28T09:08:05;1.25;;;1.15;;
19167;SDS011;9716;53.114;18.040;2023-04-28T09:10:34;1.10;;;0.93;;
19167;SDS011;9716;53.114;18.040;2023-04-28T09:13:03;1.33;;;0.90;;
19167;SDS011;9716;53.114;18.040;2023-04-28T09:15:33;3.38;;;1.23;;
19167;SDS011;9716;53.114;18.040;2023-04-28T09:18:02;8.45;;;0.85;;
19167;SDS011;9716;53.114;18.040;2023-04-28T09:20:33;5.18;;;1.08;;
19167;SDS011;9716;53.114;18.040;2023-04-28T09:23:14;3.10;;;1.42;;
19167;SDS011;9716;53.114;18.040;2023-04-28T09:26:00;3.25;;;1.02;;
19167;SDS011;9716;53.114;18.040;2023-04-28T09:28:29;3.72;;;1.00;;
19167;SDS011;9716;53.114;18.040;2023-04-28T09:30:58;2.17;;;0.85;;
19167;SDS011;9716;53.114;18.040;2023-04-28T09:33:26;1.85;;;1.10;;
19167;SDS011;9716;53.114;18.040;2023-04-28T09:35:55;2.15;;;0.95;;
19167;SDS011;9716;53.114;18.040;2023-04-28T09:38:25;2.55;;;1.02;;
19167;SDS011;9716;53.114;18.040;2023-04-28T09:40:55;3.38;;;1.00;;
19167;SDS011;9716;53.114;18.040;2023-04-28T09:43:25;1.25;;;0.80;;
19167;SDS011;9716;53.114;18.040;2023-04-28T09:45:55;2.65;;;0.98;;
19167;SDS011;9716;53.114;18.040;2023-04-28T09:48:26;1.85;;;0.98;;
19167;SDS011;9716;53.114;18.040;2023-04-28T09:50:56;0.95;;;0.80;;
19167;SDS011;9716;53.114;18.040;2023-04-28T09:53:27;2.53;;;1.02;;
19167;SDS011;9716;53.114;18.040;2023-04-28T09:55:57;1.27;;;1.17;;
19167;SDS011;9716;53.114;18.040;2023-04-28T09:58:27;1.20;;;0.80;;
19167;SDS011;9716;53.114;18.040;2023-04-28T10:00:58;5.63;;;1.48;;
19167;SDS011;9716;53.114;18.040;2023-04-28T10:03:28;1.38;;;1.10;;
19167;SDS011;9716;53.114;18.040;2023-04-28T10:05:58;2.30;;;1.25;;
19167;SDS011;9716;53.114;18.040;2023-04-28T10:08:27;2.55;;;1.23;;
19167;SDS011;9716;53.114;18.040;2023-04-28T10:10:56;2.50;;;1.17;;
19167;SDS011;9716;53.114;18.040;2023-04-28T10:13:24;3.00;;;1.50;;
19167;SDS011;9716;53.114;18.040;2023-04-28T10:15:53;1.42;;;0.80;;
19167;SDS011;9716;53.114;18.040;2023-04-28T10:18:24;1.42;;;1.05;;
19167;SDS011;9716;53.114;18.040;2023-04-28T10:20:54;1.10;;;0.88;;
19167;SDS011;9716;53.114;18.040;2023-04-28T10:29:36;2.70;;;1.20;;
19167;SDS011;9716;53.114;18.040;2023-04-28T10:32:18;1.45;;;1.10;;
19167;SDS011;9716;53.114;18.040;2023-04-28T10:34:48;1.20;;;1.10;;
19167;SDS011;9716;53.114;18.040;2023-04-28T10:37:17;6.13;;;0.88;;
19167;SDS011;9716;53.114;18.040;2023-04-28T10:42:53;2.65;;;1.00;;
19167;SDS011;9716;53.114;18.040;2023-04-28T10:51:23;1.05;;;0.82;;
19167;SDS011;9716;53.114;18.040;2023-04-28T10:54:17;1.67;;;1.10;;
19167;SDS011;9716;53.114;18.040;2023-04-28T10:59:48;1.23;;;0.85;;
19167;SDS011;9716;53.114;18.040;2023-04-28T11:02:36;5.78;;;1.05;;
19167;SDS011;9716;53.114;18.040;2023-04-28T11:05:13;1.55;;;0.90;;
19167;SDS011;9716;53.114;18.040;2023-04-28T11:11:12;0.80;;;0.80;;
19167;SDS011;9716;53.114;18.040;2023-04-28T11:13:42;7.47;;;1.58;;
19167;SDS011;9716;53.114;18.040;2023-04-28T11:16:14;0.85;;;0.73;;
19167;SDS011;9716;53.114;18.040;2023-04-28T11:21:35;1.35;;;0.98;;
19167;SDS011;9716;53.114;18.040;2023-04-28T11:24:09;3.30;;;1.20;;
19167;SDS011;9716;53.114;18.040;2023-04-28T11:26:38;1.38;;;1.10;;
19167;SDS011;9716;53.114;18.040;2023-04-28T11:29:07;1.27;;;1.00;;
19167;SDS011;9716;53.114;18.040;2023-04-28T11:31:38;1.27;;;1.17;;
19167;SDS011;9716;53.114;18.040;2023-04-28T11:34:09;2.78;;;1.13;;
19167;SDS011;9716;53.114;18.040;2023-04-28T11:36:40;1.15;;;0.95;;
19167;SDS011;9716;53.114;18.040;2023-04-28T11:39:09;0.70;;;0.70;;
19167;SDS011;9716;53.114;18.040;2023-04-28T11:41:39;2.17;;;1.10;;
19167;SDS011;9716;53.114;18.040;2023-04-28T11:44:09;2.75;;;1.42;;
19167;SDS011;9716;53.114;18.040;2023-04-28T11:46:47;3.15;;;1.33;;
19167;SDS011;9716;53.114;18.040;2023-04-28T11:49:21;0.93;;;0.90;;
19167;SDS011;9716;53.114;18.040;2023-04-28T11:51:51;1.20;;;0.95;;
19167;SDS011;9716;53.114;18.040;2023-04-28T11:54:21;2.35;;;1.10;;
19167;SDS011;9716;53.114;18.040;2023-04-28T11:56:51;1.25;;;0.98;;
19167;SDS011;9716;53.114;18.040;2023-04-28T11:59:22;1.10;;;0.95;;
19167;SDS011;9716;53.114;18.040;2023-04-28T12:01:54;1.38;;;0.90;;
19167;SDS011;9716;53.114;18.040;2023-04-28T12:04:25;2.95;;;1.35;;
19167;SDS011;9716;53.114;18.040;2023-04-28T12:07:03;1.20;;;1.00;;
19167;SDS011;9716;53.114;18.040;2023-04-28T12:09:32;1.23;;;1.10;;
19167;SDS011;9716;53.114;18.040;2023-04-28T12:12:02;2.88;;;1.30;;
19167;SDS011;9716;53.114;18.040;2023-04-28T12:14:31;5.78;;;1.48;;
19167;SDS011;9716;53.114;18.040;2023-04-28T12:17:24;1.08;;;0.93;;
19167;SDS011;9716;53.114;18.040;2023-04-28T12:19:53;4.03;;;1.02;;
19167;SDS011;9716;53.114;18.040;2023-04-28T12:22:23;1.13;;;1.00;;
19167;SDS011;9716;53.114;18.040;2023-04-28T12:25:01;3.00;;;1.58;;
19167;SDS011;9716;53.114;18.040;2023-04-28T12:27:32;1.20;;;1.10;;
19167;SDS011;9716;53.114;18.040;2023-04-28T12:30:14;8.45;;;1.40;;
19167;SDS011;9716;53.114;18.040;2023-04-28T12:32:53;1.23;;;1.13;;
19167;SDS011;9716;53.114;18.040;2023-04-28T12:35:23;4.20;;;1.40;;
19167;SDS011;9716;53.114;18.040;2023-04-28T12:37:53;1.67;;;1.33;;
19167;SDS011;9716;53.114;18.040;2023-04-28T12:40:22;4.80;;;1.15;;
19167;SDS011;9716;53.114;18.040;2023-04-28T12:42:52;1.65;;;1.00;;
19167;SDS011;9716;53.114;18.040;2023-04-28T12:45:20;1.23;;;1.02;;
19167;SDS011;9716;53.114;18.040;2023-04-28T12:47:49;2.47;;;1.23;;
19167;SDS011;9716;53.114;18.040;2023-04-28T12:50:19;2.67;;;1.48;;
19167;SDS011;9716;53.114;18.040;2023-04-28T12:52:47;2.10;;;1.45;;
19167;SDS011;9716;53.114;18.040;2023-04-28T12:55:16;2.92;;;1.10;;
19167;SDS011;9716;53.114;18.040;2023-04-28T12:57:45;1.90;;;1.50;;
19167;SDS011;9716;53.114;18.040;2023-04-28T13:00:14;2.58;;;1.67;;
19167;SDS011;9716;53.114;18.040;2023-04-28T13:02:42;2.33;;;1.52;;
19167;SDS011;9716;53.114;18.040;2023-04-28T13:05:12;2.35;;;1.27;;
19167;SDS011;9716;53.114;18.040;2023-04-28T13:07:42;1.90;;;1.33;;
19167;SDS011;9716;53.114;18.040;2023-04-28T13:10:11;5.78;;;1.80;;
19167;SDS011;9716;53.114;18.040;2023-04-28T13:12:39;5.85;;;1.77;;
19167;SDS011;9716;53.114;18.040;2023-04-28T13:15:08;8.10;;;1.88;;
19167;SDS011;9716;53.114;18.040;2023-04-28T13:17:38;6.78;;;1.77;;
19167;SDS011;9716;53.114;18.040;2023-04-28T13:20:07;2.85;;;1.60;;
19167;SDS011;9716;53.114;18.040;2023-04-28T13:22:37;4.55;;;1.75;;
19167;SDS011;9716;53.114;18.040;2023-04-28T13:25:07;3.00;;;1.45;;
19167;SDS011;9716;53.114;18.040;2023-04-28T13:27:37;4.47;;;1.80;;
19167;SDS011;9716;53.114;18.040;2023-04-28T13:30:09;2.22;;;1.50;;
19167;SDS011;9716;53.114;18.040;2023-04-28T13:32:39;2.58;;;1.50;;
19167;SDS011;9716;53.114;18.040;2023-04-28T13:35:07;2.15;;;1.65;;
19167;SDS011;9716;53.114;18.040;2023-04-28T13:37:36;2.58;;;1.83;;
19167;SDS011;9716;53.114;18.040;2023-04-28T13:40:10;2.45;;;1.77;;
19167;SDS011;9716;53.114;18.040;2023-04-28T13:42:39;5.35;;;2.28;;
19167;SDS011;9716;53.114;18.040;2023-04-28T13:45:07;3.38;;;1.95;;
19167;SDS011;9716;53.114;18.040;2023-04-28T13:47:36;11.00;;;2.65;;
19167;SDS011;9716;53.114;18.040;2023-04-28T13:50:05;10.60;;;3.25;;
19167;SDS011;9716;53.114;18.040;2023-04-28T13:52:34;8.88;;;2.40;;
19167;SDS011;9716;53.114;18.040;2023-04-28T13:55:03;9.25;;;1.90;;
19167;SDS011;9716;53.114;18.040;2023-04-28T13:57:34;7.47;;;3.28;;
19167;SDS011;9716;53.114;18.040;2023-04-28T14:00:02;8.90;;;3.15;;
19167;SDS011;9716;53.114;18.040;2023-04-28T14:02:31;7.15;;;2.90;;
19167;SDS011;9716;53.114;18.040;2023-04-28T14:05:00;5.22;;;2.08;;
19167;SDS011;9716;53.114;18.040;2023-04-28T14:07:29;4.82;;;2.47;;
19167;SDS011;9716;53.114;18.040;2023-04-28T14:09:57;4.43;;;2.03;;
19167;SDS011;9716;53.114;18.040;2023-04-28T14:12:25;3.42;;;2.50;;
19167;SDS011;9716;53.114;18.040;2023-04-28T14:14:55;4.13;;;2.40;;
19167;SDS011;9716;53.114;18.040;2023-04-28T14:17:24;6.38;;;2.55;;
19167;SDS011;9716;53.114;18.040;2023-04-28T14:19:53;14.07;;;2.78;;
19167;SDS011;9716;53.114;18.040;2023-04-28T14:22:22;4.97;;;2.72;;
19167;SDS011;9716;53.114;18.040;2023-04-28T14:24:51;6.13;;;2.58;;
19167;SDS011;9716;53.114;18.040;2023-04-28T14:27:20;3.90;;;2.45;;
19167;SDS011;9716;53.114;18.040;2023-04-28T14:29:48;5.00;;;2.03;;
19167;SDS011;9716;53.114;18.040;2023-04-28T14:32:18;4.30;;;2.33;;
19167;SDS011;9716;53.114;18.040;2023-04-28T14:34:47;4.90;;;2.10;;
19167;SDS011;9716;53.114;18.040;2023-04-28T14:37:16;5.30;;;2.53;;
19167;SDS011;9716;53.114;18.040;2023-04-28T14:39:45;2.80;;;1.88;;
19167;SDS011;9716;53.114;18.040;2023-04-28T14:42:14;5.38;;;2.30;;
19167;SDS011;9716;53.114;18.040;2023-04-28T14:44:42;3.42;;;2.05;;
19167;SDS011;9716;53.114;18.040;2023-04-28T14:47:12;2.80;;;1.98;;
19167;SDS011;9716;53.114;18.040;2023-04-28T14:49:42;5.68;;;2.55;;
19167;SDS011;9716;53.114;18.040;2023-04-28T14:52:10;5.95;;;2.60;;
19167;SDS011;9716;53.114;18.040;2023-04-28T14:54:39;3.20;;;2.20;;
19167;SDS011;9716;53.114;18.040;2023-04-28T14:57:07;7.15;;;2.63;;
19167;SDS011;9716;53.114;18.040;2023-04-28T14:59:36;6.63;;;2.30;;
19167;SDS011;9716;53.114;18.040;2023-04-28T15:02:05;9.40;;;2.97;;
19167;SDS011;9716;53.114;18.040;2023-04-28T15:04:33;3.30;;;2.20;;
19167;SDS011;9716;53.114;18.040;2023-04-28T15:07:03;4.75;;;2.65;;
19167;SDS011;9716;53.114;18.040;2023-04-28T15:09:34;7.85;;;2.33;;
19167;SDS011;9716;53.114;18.040;2023-04-28T15:12:03;5.72;;;2.42;;
19167;SDS011;9716;53.114;18.040;2023-04-28T15:14:32;6.85;;;2.30;;
19167;SDS011;9716;53.114;18.040;2023-04-28T15:17:02;3.45;;;2.55;;
19167;SDS011;9716;53.114;18.040;2023-04-28T15:19:30;10.75;;;2.22;;